Weather History for Idaho Cnty AP, Grangeville, I, ID

Change the Weather History Date:

Thursday, March 27, 2014

  Actual Average (KLWS) Record (KLWS)
Temperature  
Mean Temperature 40 °F 48 °F  
Max Temperature 46 °F 58 °F 73 °F (1986)
Min Temperature 33 °F 38 °F 21 °F (1975)
Degree Days  
Heating Degree Days 26 17  
Month to date heating degree days 546  
Since 1 July heating degree days 4401  
Cooling Degree Days 0 0  
Month to date cooling degree days 0  
Year to date cooling degree days 0  
Moisture  
Dew Point 33 °F    
Average Humidity 79    
Maximum Humidity 94    
Minimum Humidity 57    
Precipitation  
Precipitation 0.19 in 0.03 in 0.45 in (2005)
Month to date precipitation 0.99  
Year to date precipitation 2.85  
Snow  
Snow 0.00 in 0.00 in 0.70 in (1965)
Month to date snowfall 0.7  
Since 1 July snowfall 10.5  
Snow Depth -    
Sea Level Pressure  
Sea Level Pressure 29.73 in    
Wind  
Wind Speed 9 mph (SW)    
Max Wind Speed 23 mph    
Max Gust Speed 33 mph    
Visibility 9 miles    
Events      
T = Trace of Precipitation, MM = Missing Value Source: NWS Daily Summary

Daily Weather History Graph

Daily Weather History Graph

Search for Another Location

Airport:

Trip Planner

Search our weather history database for the weather conditions in past years. The results will help you decide how hot, cold, wet, or windy it might be!

Date:

Astronomy

Mar. 27, 2014 Rise Set
Actual Time 6:33 AM PDT 7:06 PM PDT
Civil Twilight 6:03 AM PDT 7:36 PM PDT
Nautical Twilight 5:28 AM PDT 8:12 PM PDT
Astronomical Twilight 4:51 AM PDT 8:49 PM PDT
Moon 4:38 AM PDT (3/27) 3:50 PM PDT (3/27)
Length of Visible Light 13h 32m
Length of Day
12h 32m
Waning Crescent, 12% of the Moon is Illuminated
Mar 27
Waning Crescent
Mar 30
New
Apr 7
First Quarter
Apr 15
Full
Apr 22
Last Quarter

Hourly Weather History & Observations

Time (PDT) Temp. Windchill Dew Point Humidity Pressure Visibility Wind Dir Wind Speed Gust Speed Precip Events Conditions
12:15 AM 39.0 °F - 35.6 °F 88% 29.57 in 7.0 mi Calm Calm - N/A   Overcast
12:35 AM 38.5 °F - 35.8 °F 90% 29.57 in 10.0 mi Calm Calm - 0.01 in   Overcast
12:55 AM 38.7 °F - 35.6 °F 89% 29.57 in 10.0 mi Calm Calm - 0.02 in   Overcast
1:15 AM 38.7 °F - 36.0 °F 90% 29.57 in 5.0 mi Calm Calm - 0.03 in   Overcast
1:35 AM 38.5 °F 32.7 °F 35.1 °F 87% 29.58 in 5.0 mi WSW 8.1 mph - 0.05 in   Overcast
1:55 AM 36.1 °F 28.7 °F 33.1 °F 89% 29.59 in 1.8 mi WSW 10.4 mph - 0.09 in   Overcast
2:15 AM 33.1 °F 25.5 °F 31.6 °F 94% 29.59 in 3.0 mi SW 9.2 mph - 0.03 in   Overcast
2:35 AM 33.6 °F 26.2 °F 32.0 °F 94% 29.59 in 10.0 mi SW 9.2 mph - 0.03 in   Overcast
2:55 AM 35.1 °F 29.3 °F 32.2 °F 89% 29.59 in 10.0 mi SW 6.9 mph - 0.03 in   Overcast
3:15 AM 35.8 °F 31.9 °F 32.2 °F 87% 29.59 in 10.0 mi WSW 4.6 mph - N/A   Overcast
3:35 AM 36.0 °F 33.3 °F 32.5 °F 87% 29.60 in 10.0 mi SW 3.5 mph - N/A   Overcast
3:55 AM 35.8 °F 33.0 °F 32.7 °F 89% 29.61 in 10.0 mi WSW 3.5 mph - N/A   Overcast
4:15 AM 36.3 °F 33.7 °F 32.9 °F 87% 29.61 in 10.0 mi WSW 3.5 mph - N/A   Overcast
4:35 AM 37.2 °F 30.6 °F 32.9 °F 84% 29.61 in 10.0 mi WSW 9.2 mph 19.6 mph N/A   Overcast
4:55 AM 37.6 °F 32.3 °F 33.1 °F 84% 29.61 in 10.0 mi WSW 6.9 mph - N/A   Overcast
5:15 AM 37.6 °F 31.0 °F 33.6 °F 86% 29.62 in 10.0 mi West 9.2 mph - N/A   Overcast
5:35 AM 37.0 °F 28.1 °F 33.4 °F 87% 29.64 in 5.0 mi SW 15.0 mph 26.5 mph 0.01 in   Overcast
5:55 AM 36.5 °F 28.7 °F 32.7 °F 86% 29.64 in 10.0 mi SW 11.5 mph 23.0 mph 0.01 in   Overcast
6:15 AM 36.9 °F 29.6 °F 32.9 °F 86% 29.64 in 10.0 mi SW 10.4 mph 19.6 mph N/A   Overcast
6:35 AM 37.2 °F 27.0 °F 32.4 °F 83% 29.65 in 10.0 mi SW 19.6 mph 25.3 mph N/A   Overcast
6:55 AM 37.8 °F 28.0 °F 31.8 °F 79% 29.65 in 10.0 mi SW 18.4 mph 26.5 mph N/A   Overcast
7:15 AM 37.8 °F 28.6 °F 31.8 °F 79% 29.66 in 10.0 mi SW 16.1 mph 25.3 mph N/A   Overcast
7:35 AM 38.1 °F 30.2 °F 31.6 °F 77% 29.67 in 10.0 mi SW 12.7 mph 20.7 mph N/A   Overcast
7:55 AM 38.5 °F 32.7 °F 31.6 °F 76% 29.68 in 10.0 mi WSW 8.1 mph 18.4 mph N/A   Overcast
8:15 AM 38.7 °F 30.9 °F 31.3 °F 75% 29.68 in 10.0 mi SW 12.7 mph 19.6 mph N/A   Overcast
8:35 AM 39.2 °F 32.0 °F 31.3 °F 73% 29.68 in 10.0 mi SW 11.5 mph - N/A   Mostly Cloudy
8:55 AM 39.7 °F 33.2 °F 31.5 °F 72% 29.68 in 10.0 mi SW 10.4 mph 18.4 mph N/A   Scattered Clouds
9:15 AM 40.1 °F 33.2 °F 32.0 °F 73% 29.68 in 10.0 mi SW 11.5 mph 19.6 mph N/A   Scattered Clouds
9:35 AM 40.3 °F 33.0 °F 32.7 °F 74% 29.70 in 10.0 mi SSW 12.7 mph 20.7 mph N/A   Overcast
9:55 AM 40.8 °F 32.0 °F 33.1 °F 74% 29.71 in 10.0 mi SW 18.4 mph 23.0 mph N/A   Overcast
10:15 AM 41.0 °F 32.5 °F 33.1 °F 73% 29.71 in 10.0 mi SW 17.3 mph 23.0 mph N/A   Mostly Cloudy
10:35 AM 41.4 °F 33.0 °F 33.1 °F 72% 29.71 in 10.0 mi SW 17.3 mph - N/A   Scattered Clouds
10:55 AM 42.3 °F 34.4 °F 32.7 °F 69% 29.72 in 10.0 mi SSW 16.1 mph - N/A   Mostly Cloudy
11:15 AM 43.0 °F 35.4 °F 32.4 °F 66% 29.73 in 10.0 mi SW 16.1 mph 21.9 mph N/A   Overcast
11:35 AM 42.8 °F 35.8 °F 33.1 °F 69% 29.73 in 10.0 mi SW 13.8 mph - N/A   Mostly Cloudy
11:55 AM 43.9 °F 36.8 °F 32.9 °F 65% 29.72 in 10.0 mi SW 15.0 mph 20.7 mph N/A   Mostly Cloudy
12:15 PM 45.5 °F 38.3 °F 33.8 °F 64% 29.72 in 10.0 mi WSW 17.3 mph 24.2 mph N/A   Overcast
12:35 PM 46.2 °F 39.5 °F 32.4 °F 58% 29.72 in 10.0 mi WSW 16.1 mph - N/A   Mostly Cloudy
12:55 PM 46.8 °F - 32.2 °F 57% 29.72 in 10.0 mi SSW 13.8 mph 21.9 mph N/A   Mostly Cloudy
1:15 PM 44.2 °F 36.7 °F 32.4 °F 63% 29.74 in 10.0 mi WSW 17.3 mph 25.3 mph N/A   Overcast
1:35 PM 38.7 °F 31.4 °F 32.5 °F 79% 29.74 in 2.5 mi SW 11.5 mph 17.3 mph 0.02 in   Overcast
1:55 PM 37.4 °F 30.8 °F 34.3 °F 89% 29.74 in 10.0 mi SW 9.2 mph - 0.03 in   Overcast
2:15 PM 39.6 °F 30.6 °F 34.7 °F 83% 29.73 in 10.0 mi SW 17.3 mph 21.9 mph N/A   Overcast
2:35 PM 41.9 °F 34.3 °F 35.8 °F 79% 29.73 in 10.0 mi SW 15.0 mph 21.9 mph N/A   Scattered Clouds
2:55 PM 43.5 °F 35.5 °F 35.4 °F 73% 29.73 in 10.0 mi SW 18.4 mph 24.2 mph N/A   Scattered Clouds
3:15 PM 45.0 °F 36.4 °F 35.6 °F 70% 29.73 in 10.0 mi SW 23.0 mph 33.4 mph N/A   Scattered Clouds
3:35 PM 45.1 °F 37.6 °F 35.2 °F 68% 29.73 in 10.0 mi SSW 18.4 mph 33.4 mph N/A   Mostly Cloudy
3:55 PM 45.0 °F 37.4 °F 34.2 °F 66% 29.74 in 10.0 mi WSW 18.4 mph 23.0 mph N/A   Mostly Cloudy
4:15 PM 44.2 °F 35.7 °F 33.4 °F 66% 29.75 in 10.0 mi SW 21.9 mph 27.6 mph N/A   Mostly Cloudy
4:35 PM 41.5 °F 32.9 °F 34.9 °F 77% 29.76 in 2.5 mi SW 18.4 mph - 0.01 in   Overcast
4:55 PM 42.1 °F 33.6 °F 36.5 °F 81% 29.76 in 10.0 mi SW 18.4 mph - 0.01 in   Mostly Cloudy
5:15 PM 43.2 °F 35.3 °F 36.1 °F 76% 29.77 in 10.0 mi WSW 17.3 mph 21.9 mph N/A   Overcast
5:35 PM 43.3 °F 35.8 °F 33.6 °F 69% 29.78 in 10.0 mi WSW 16.1 mph - N/A   Overcast
6:00 PM 43.3 °F 38.1 °F 32.5 °F 66% 29.80 in 10.0 mi West 9.2 mph 20.7 mph N/A   Overcast
6:15 PM 41.0 °F 36.4 °F 33.6 °F 75% 29.81 in 10.0 mi ENE 6.9 mph - N/A   Overcast
6:35 PM 38.1 °F 33.7 °F 35.1 °F 89% 29.82 in 10.0 mi ESE 5.8 mph - N/A   Overcast
6:55 PM 37.6 °F 32.3 °F 34.9 °F 90% 29.83 in 10.0 mi SE 6.9 mph - N/A   Overcast
7:15 PM 37.2 °F 32.6 °F 34.3 °F 89% 29.83 in 10.0 mi ESE 5.8 mph - N/A   Overcast
7:35 PM 38.3 °F 31.9 °F 32.9 °F 81% 29.84 in 10.0 mi WSW 9.2 mph - N/A   Overcast
7:55 PM 39.9 °F 30.8 °F 32.0 °F 73% 29.84 in 10.0 mi SW 18.4 mph - N/A   Overcast
8:15 PM 40.3 °F 33.0 °F 32.0 °F 72% 29.86 in 10.0 mi WSW 12.7 mph - N/A   Overcast
8:35 PM 40.5 °F 32.8 °F 31.8 °F 71% 29.86 in 10.0 mi SW 13.8 mph - N/A   Overcast
8:55 PM 40.1 °F 31.3 °F 31.8 °F 72% 29.87 in 10.0 mi WSW 17.3 mph - N/A   Overcast
9:15 PM 39.9 °F 30.2 °F 32.0 °F 73% 29.88 in 10.0 mi SW 20.7 mph 27.6 mph N/A   Overcast
9:35 PM 38.8 °F 33.8 °F 32.7 °F 79% 29.89 in 10.0 mi West 6.9 mph - N/A   Overcast
9:55 PM 38.7 °F 34.3 °F 33.4 °F 81% 29.89 in 10.0 mi NW 5.8 mph - N/A   Overcast
10:15 PM 37.8 °F 28.6 °F 33.8 °F 86% 29.90 in 10.0 mi NNW 16.1 mph - N/A   Overcast
10:35 PM 36.5 °F 33.9 °F 33.4 °F 89% 29.91 in 10.0 mi North 3.5 mph - N/A   Overcast
10:55 PM 36.5 °F 32.7 °F 33.8 °F 90% 29.92 in 10.0 mi South 4.6 mph - N/A   Overcast
11:15 PM 36.5 °F 33.9 °F 33.4 °F 89% 29.92 in 10.0 mi South 3.5 mph - N/A   Overcast
11:35 PM 36.0 °F - 33.1 °F 89% 29.92 in 10.0 mi Calm Calm - N/A   Overcast
11:55 PM 37.0 °F 27.0 °F 32.5 °F 84% 29.93 in 10.0 mi SW 18.4 mph 21.9 mph N/A   Overcast